sensor_id;sensor_type;location;lat;lon;timestamp;temperature;humidity
51815;DHT22;37874;53.158;6.766;2022-08-04T01:00:15;26.80;55.90
51815;DHT22;37874;53.158;6.766;2022-08-04T01:08:37;26.80;56.00
51815;DHT22;37874;53.158;6.766;2022-08-04T01:13:38;26.70;56.00
51815;DHT22;37874;53.158;6.766;2022-08-04T01:16:08;26.70;56.00
51815;DHT22;37874;53.158;6.766;2022-08-04T01:19:04;26.70;56.10
51815;DHT22;37874;53.158;6.766;2022-08-04T01:27:08;26.70;56.00
51815;DHT22;37874;53.158;6.766;2022-08-04T01:29:44;26.70;55.90
51815;DHT22;37874;53.158;6.766;2022-08-04T01:32:23;26.60;56.00
51815;DHT22;37874;53.158;6.766;2022-08-04T01:35:10;26.60;56.10
51815;DHT22;37874;53.158;6.766;2022-08-04T01:40:36;26.60;55.70
51815;DHT22;37874;53.158;6.766;2022-08-04T01:43:02;26.60;55.80
51815;DHT22;37874;53.158;6.766;2022-08-04T01:45:29;26.60;56.00
51815;DHT22;37874;53.158;6.766;2022-08-04T01:47:55;26.50;56.10
51815;DHT22;37874;53.158;6.766;2022-08-04T01:50:22;26.60;56.00
51815;DHT22;37874;53.158;6.766;2022-08-04T01:52:52;26.50;56.10
51815;DHT22;37874;53.158;6.766;2022-08-04T01:55:18;26.50;55.90
51815;DHT22;37874;53.158;6.766;2022-08-04T01:57:49;26.50;56.10
51815;DHT22;37874;53.158;6.766;2022-08-04T02:00:21;26.50;56.10
51815;DHT22;37874;53.158;6.766;2022-08-04T02:02:49;26.50;56.10
51815;DHT22;37874;53.158;6.766;2022-08-04T02:05:16;26.50;56.30
51815;DHT22;37874;53.158;6.766;2022-08-04T02:08:03;26.50;56.30
51815;DHT22;37874;53.158;6.766;2022-08-04T02:10:33;26.40;56.20
51815;DHT22;37874;53.158;6.766;2022-08-04T02:13:26;26.40;56.20
51815;DHT22;37874;53.158;6.766;2022-08-04T02:16:23;26.40;56.30
51815;DHT22;37874;53.158;6.766;2022-08-04T02:21:24;26.40;56.40
51815;DHT22;37874;53.158;6.766;2022-08-04T02:23:53;26.40;56.40
51815;DHT22;37874;53.158;6.766;2022-08-04T02:26:21;26.40;56.30
51815;DHT22;37874;53.158;6.766;2022-08-04T02:29:00;26.40;56.30
51815;DHT22;37874;53.158;6.766;2022-08-04T02:31:32;26.40;56.10
51815;DHT22;37874;53.158;6.766;2022-08-04T02:36:58;26.40;56.20
51815;DHT22;37874;53.158;6.766;2022-08-04T02:39:27;26.40;56.30
51815;DHT22;37874;53.158;6.766;2022-08-04T02:41:57;26.40;56.30
51815;DHT22;37874;53.158;6.766;2022-08-04T02:44:25;26.30;56.20
51815;DHT22;37874;53.158;6.766;2022-08-04T02:46:54;26.30;56.10
51815;DHT22;37874;53.158;6.766;2022-08-04T02:49:23;26.30;56.30
51815;DHT22;37874;53.158;6.766;2022-08-04T02:51:53;26.30;56.50
51815;DHT22;37874;53.158;6.766;2022-08-04T02:54:24;26.30;56.50
51815;DHT22;37874;53.158;6.766;2022-08-04T02:56:52;26.30;56.40
51815;DHT22;37874;53.158;6.766;2022-08-04T02:59:24;26.30;56.60
51815;DHT22;37874;53.158;6.766;2022-08-04T03:01:50;26.30;56.50
51815;DHT22;37874;53.158;6.766;2022-08-04T03:07:35;26.30;56.30
51815;DHT22;37874;53.158;6.766;2022-08-04T03:16:00;26.30;56.30
51815;DHT22;37874;53.158;6.766;2022-08-04T03:18:57;26.30;56.30
51815;DHT22;37874;53.158;6.766;2022-08-04T03:27:10;26.30;56.30
51815;DHT22;37874;53.158;6.766;2022-08-04T03:38:20;26.20;56.40
51815;DHT22;37874;53.158;6.766;2022-08-04T03:51:18;26.20;56.40
51815;DHT22;37874;53.158;6.766;2022-08-04T04:08:20;26.20;56.30
51815;DHT22;37874;53.158;6.766;2022-08-04T04:11:22;26.20;56.40
51815;DHT22;37874;53.158;6.766;2022-08-04T04:14:10;26.20;56.50
51815;DHT22;37874;53.158;6.766;2022-08-04T04:22:53;26.20;56.70
51815;DHT22;37874;53.158;6.766;2022-08-04T04:31:33;26.20;56.80
51815;DHT22;37874;53.158;6.766;2022-08-04T04:37:29;26.20;56.70
51815;DHT22;37874;53.158;6.766;2022-08-04T04:59:35;26.30;57.00
51815;DHT22;37874;53.158;6.766;2022-08-04T05:07:56;26.40;56.90
51815;DHT22;37874;53.158;6.766;2022-08-04T05:15:34;26.50;56.80
51815;DHT22;37874;53.158;6.766;2022-08-04T05:18:03;26.50;56.70
51815;DHT22;37874;53.158;6.766;2022-08-04T05:20:40;26.50;56.80
51815;DHT22;37874;53.158;6.766;2022-08-04T05:23:24;26.60;56.70
51815;DHT22;37874;53.158;6.766;2022-08-04T05:28:35;26.60;56.70
51815;DHT22;37874;53.158;6.766;2022-08-04T05:31:10;26.70;56.60
51815;DHT22;37874;53.158;6.766;2022-08-04T05:36:07;26.80;56.60
51815;DHT22;37874;53.158;6.766;2022-08-04T05:38:37;26.90;56.50
51815;DHT22;37874;53.158;6.766;2022-08-04T05:41:05;26.90;56.40
51815;DHT22;37874;53.158;6.766;2022-08-04T05:43:33;26.90;56.50
51815;DHT22;37874;53.158;6.766;2022-08-04T05:46:00;27.00;56.60
51815;DHT22;37874;53.158;6.766;2022-08-04T05:48:27;27.00;56.30
51815;DHT22;37874;53.158;6.766;2022-08-04T05:50:55;27.00;55.80
51815;DHT22;37874;53.158;6.766;2022-08-04T05:53:22;27.10;55.50
51815;DHT22;37874;53.158;6.766;2022-08-04T05:55:49;27.10;55.80
51815;DHT22;37874;53.158;6.766;2022-08-04T05:58:16;27.10;54.80
51815;DHT22;37874;53.158;6.766;2022-08-04T06:00:44;27.10;54.90
51815;DHT22;37874;53.158;6.766;2022-08-04T06:03:11;27.10;54.90
51815;DHT22;37874;53.158;6.766;2022-08-04T06:05:40;27.10;54.30
51815;DHT22;37874;53.158;6.766;2022-08-04T06:08:06;27.10;54.50
51815;DHT22;37874;53.158;6.766;2022-08-04T06:10:34;27.20;54.40
51815;DHT22;37874;53.158;6.766;2022-08-04T06:13:06;27.20;54.40
51815;DHT22;37874;53.158;6.766;2022-08-04T06:15:37;27.20;54.30
51815;DHT22;37874;53.158;6.766;2022-08-04T06:18:05;27.20;54.00
51815;DHT22;37874;53.158;6.766;2022-08-04T06:20:34;27.30;54.50
51815;DHT22;37874;53.158;6.766;2022-08-04T06:23:07;27.30;54.10
51815;DHT22;37874;53.158;6.766;2022-08-04T06:25:38;27.30;54.40
51815;DHT22;37874;53.158;6.766;2022-08-04T06:28:06;27.40;53.70
51815;DHT22;37874;53.158;6.766;2022-08-04T06:30:33;27.40;53.20
51815;DHT22;37874;53.158;6.766;2022-08-04T06:33:02;27.40;53.20
51815;DHT22;37874;53.158;6.766;2022-08-04T06:35:38;27.50;53.10
51815;DHT22;37874;53.158;6.766;2022-08-04T06:38:08;27.50;53.20
51815;DHT22;37874;53.158;6.766;2022-08-04T06:40:35;27.60;52.50
51815;DHT22;37874;53.158;6.766;2022-08-04T06:43:03;27.70;52.60
51815;DHT22;37874;53.158;6.766;2022-08-04T06:45:32;27.70;52.70
51815;DHT22;37874;53.158;6.766;2022-08-04T06:48:00;27.80;52.30
51815;DHT22;37874;53.158;6.766;2022-08-04T06:50:26;27.90;52.00
51815;DHT22;37874;53.158;6.766;2022-08-04T06:52:52;27.90;52.20
51815;DHT22;37874;53.158;6.766;2022-08-04T06:55:18;28.00;51.80
51815;DHT22;37874;53.158;6.766;2022-08-04T06:57:44;28.00;51.70
51815;DHT22;37874;53.158;6.766;2022-08-04T07:00:12;28.10;51.40
51815;DHT22;37874;53.158;6.766;2022-08-04T07:02:49;28.20;51.10
51815;DHT22;37874;53.158;6.766;2022-08-04T07:05:16;28.30;51.10
51815;DHT22;37874;53.158;6.766;2022-08-04T07:07:43;28.30;51.00
51815;DHT22;37874;53.158;6.766;2022-08-04T07:10:10;28.40;50.80
51815;DHT22;37874;53.158;6.766;2022-08-04T07:12:39;28.40;50.40
51815;DHT22;37874;53.158;6.766;2022-08-04T07:15:07;28.50;50.30
51815;DHT22;37874;53.158;6.766;2022-08-04T07:17:36;28.50;50.50
51815;DHT22;37874;53.158;6.766;2022-08-04T07:20:04;28.50;50.50
51815;DHT22;37874;53.158;6.766;2022-08-04T07:22:30;28.50;51.20
51815;DHT22;37874;53.158;6.766;2022-08-04T07:24:57;28.60;50.70
51815;DHT22;37874;53.158;6.766;2022-08-04T07:27:25;28.60;50.70
51815;DHT22;37874;53.158;6.766;2022-08-04T07:29:51;28.60;50.70
51815;DHT22;37874;53.158;6.766;2022-08-04T07:32:21;28.60;50.50
51815;DHT22;37874;53.158;6.766;2022-08-04T07:34:48;28.70;50.10
51815;DHT22;37874;53.158;6.766;2022-08-04T07:37:15;28.80;50.20
51815;DHT22;37874;53.158;6.766;2022-08-04T07:39:41;28.80;49.90
51815;DHT22;37874;53.158;6.766;2022-08-04T07:42:07;28.90;49.80
51815;DHT22;37874;53.158;6.766;2022-08-04T07:44:34;28.90;49.70
51815;DHT22;37874;53.158;6.766;2022-08-04T07:47:02;28.90;49.90
51815;DHT22;37874;53.158;6.766;2022-08-04T07:49:29;29.00;49.80
51815;DHT22;37874;53.158;6.766;2022-08-04T07:51:55;29.10;49.80
51815;DHT22;37874;53.158;6.766;2022-08-04T07:54:21;29.10;50.20
51815;DHT22;37874;53.158;6.766;2022-08-04T07:56:48;29.20;49.90
51815;DHT22;37874;53.158;6.766;2022-08-04T07:59:17;29.30;49.60
51815;DHT22;37874;53.158;6.766;2022-08-04T08:01:44;29.30;49.50
51815;DHT22;37874;53.158;6.766;2022-08-04T08:04:11;29.40;49.80
51815;DHT22;37874;53.158;6.766;2022-08-04T08:06:37;29.40;49.90
51815;DHT22;37874;53.158;6.766;2022-08-04T08:09:11;29.50;49.40
51815;DHT22;37874;53.158;6.766;2022-08-04T08:11:37;29.50;48.60
51815;DHT22;37874;53.158;6.766;2022-08-04T08:14:04;29.50;48.50
51815;DHT22;37874;53.158;6.766;2022-08-04T08:16:34;29.60;48.30
51815;DHT22;37874;53.158;6.766;2022-08-04T08:19:00;29.60;48.20
51815;DHT22;37874;53.158;6.766;2022-08-04T08:21:27;29.70;48.10
51815;DHT22;37874;53.158;6.766;2022-08-04T08:23:53;29.60;48.30
51815;DHT22;37874;53.158;6.766;2022-08-04T08:26:19;29.70;48.60
51815;DHT22;37874;53.158;6.766;2022-08-04T08:28:45;29.70;48.20
51815;DHT22;37874;53.158;6.766;2022-08-04T08:31:12;29.80;48.90
51815;DHT22;37874;53.158;6.766;2022-08-04T08:33:38;29.80;48.40
51815;DHT22;37874;53.158;6.766;2022-08-04T08:36:32;29.80;48.10
51815;DHT22;37874;53.158;6.766;2022-08-04T08:39:16;29.80;48.40
51815;DHT22;37874;53.158;6.766;2022-08-04T08:47:03;29.90;48.60
51815;DHT22;37874;53.158;6.766;2022-08-04T08:52:37;30.00;48.40
51815;DHT22;37874;53.158;6.766;2022-08-04T09:12:44;30.30;47.40
51815;DHT22;37874;53.158;6.766;2022-08-04T09:15:15;30.40;46.60
51815;DHT22;37874;53.158;6.766;2022-08-04T09:17:49;30.40;46.70
51815;DHT22;37874;53.158;6.766;2022-08-04T09:26:03;30.30;46.70
51815;DHT22;37874;53.158;6.766;2022-08-04T09:28:42;30.30;47.10
51815;DHT22;37874;53.158;6.766;2022-08-04T09:31:15;30.30;47.70
51815;DHT22;37874;53.158;6.766;2022-08-04T09:33:49;30.40;47.70
51815;DHT22;37874;53.158;6.766;2022-08-04T09:36:41;30.40;48.00
51815;DHT22;37874;53.158;6.766;2022-08-04T09:42:19;30.40;47.80
51815;DHT22;37874;53.158;6.766;2022-08-04T09:45:06;30.40;47.60
51815;DHT22;37874;53.158;6.766;2022-08-04T09:47:37;30.40;48.20
51815;DHT22;37874;53.158;6.766;2022-08-04T09:50:33;30.40;48.30
51815;DHT22;37874;53.158;6.766;2022-08-04T09:55:57;30.40;48.30
51815;DHT22;37874;53.158;6.766;2022-08-04T10:01:16;30.40;47.90
51815;DHT22;37874;53.158;6.766;2022-08-04T10:03:48;30.40;47.40
51815;DHT22;37874;53.158;6.766;2022-08-04T10:19:37;30.40;48.20
51815;DHT22;37874;53.158;6.766;2022-08-04T10:22:18;30.40;48.40
51815;DHT22;37874;53.158;6.766;2022-08-04T10:27:50;30.40;48.20
51815;DHT22;37874;53.158;6.766;2022-08-04T10:30:18;30.50;47.70
51815;DHT22;37874;53.158;6.766;2022-08-04T10:33:11;30.50;47.30
51815;DHT22;37874;53.158;6.766;2022-08-04T10:35:45;30.50;47.30
51815;DHT22;37874;53.158;6.766;2022-08-04T10:38:15;30.50;47.00
51815;DHT22;37874;53.158;6.766;2022-08-04T10:40:51;30.50;46.90
51815;DHT22;37874;53.158;6.766;2022-08-04T10:43:24;30.50;47.20
51815;DHT22;37874;53.158;6.766;2022-08-04T10:46:12;30.50;46.90
51815;DHT22;37874;53.158;6.766;2022-08-04T10:48:56;30.50;46.80
51815;DHT22;37874;53.158;6.766;2022-08-04T10:51:43;30.60;46.50
51815;DHT22;37874;53.158;6.766;2022-08-04T10:54:18;30.60;46.30
51815;DHT22;37874;53.158;6.766;2022-08-04T10:56:53;30.70;45.80
51815;DHT22;37874;53.158;6.766;2022-08-04T10:59:27;30.70;45.40
51815;DHT22;37874;53.158;6.766;2022-08-04T11:01:58;30.70;45.50
51815;DHT22;37874;53.158;6.766;2022-08-04T11:04:52;30.70;45.20
51815;DHT22;37874;53.158;6.766;2022-08-04T11:07:23;30.70;45.00
51815;DHT22;37874;53.158;6.766;2022-08-04T11:09:50;30.70;45.20
51815;DHT22;37874;53.158;6.766;2022-08-04T11:12:20;30.60;45.30
51815;DHT22;37874;53.158;6.766;2022-08-04T11:15:35;30.60;45.40
51815;DHT22;37874;53.158;6.766;2022-08-04T11:17:42;30.70;45.30
51815;DHT22;37874;53.158;6.766;2022-08-04T11:20:19;30.70;44.70
51815;DHT22;37874;53.158;6.766;2022-08-04T11:23:08;30.70;44.90
51815;DHT22;37874;53.158;6.766;2022-08-04T11:25:50;30.80;45.00
51815;DHT22;37874;53.158;6.766;2022-08-04T11:35:00;30.80;44.80
51815;DHT22;37874;53.158;6.766;2022-08-04T11:37:51;30.80;45.00
51815;DHT22;37874;53.158;6.766;2022-08-04T11:43:56;30.80;45.30
51815;DHT22;37874;53.158;6.766;2022-08-04T11:53:13;30.80;45.80
51815;DHT22;37874;53.158;6.766;2022-08-04T11:59:04;30.80;46.60
51815;DHT22;37874;53.158;6.766;2022-08-04T12:05:11;30.80;47.20
51815;DHT22;37874;53.158;6.766;2022-08-04T12:07:48;30.80;47.30
51815;DHT22;37874;53.158;6.766;2022-08-04T12:17:01;30.80;47.10
51815;DHT22;37874;53.158;6.766;2022-08-04T12:26:06;30.80;46.70
51815;DHT22;37874;53.158;6.766;2022-08-04T12:28:35;30.80;46.60
51815;DHT22;37874;53.158;6.766;2022-08-04T12:31:47;30.70;46.80
51815;DHT22;37874;53.158;6.766;2022-08-04T12:38:10;30.70;46.80
51815;DHT22;37874;53.158;6.766;2022-08-04T12:40:56;30.70;46.50
51815;DHT22;37874;53.158;6.766;2022-08-04T12:47:03;30.50;46.10
51815;DHT22;37874;53.158;6.766;2022-08-04T12:49:33;30.50;46.20
51815;DHT22;37874;53.158;6.766;2022-08-04T12:52:18;30.40;46.00
51815;DHT22;37874;53.158;6.766;2022-08-04T12:55:03;30.40;46.30
51815;DHT22;37874;53.158;6.766;2022-08-04T12:58:10;30.30;46.40
51815;DHT22;37874;53.158;6.766;2022-08-04T13:04:19;30.20;46.70
51815;DHT22;37874;53.158;6.766;2022-08-04T13:07:23;30.10;47.20
51815;DHT22;37874;53.158;6.766;2022-08-04T13:10:15;30.10;46.60
51815;DHT22;37874;53.158;6.766;2022-08-04T13:13:19;30.10;46.70
51815;DHT22;37874;53.158;6.766;2022-08-04T13:16:29;30.00;46.50
51815;DHT22;37874;53.158;6.766;2022-08-04T13:19:33;30.10;46.70
51815;DHT22;37874;53.158;6.766;2022-08-04T13:31:35;30.20;45.70
51815;DHT22;37874;53.158;6.766;2022-08-04T13:34:04;30.20;45.50
51815;DHT22;37874;53.158;6.766;2022-08-04T13:36:34;30.30;45.40
51815;DHT22;37874;53.158;6.766;2022-08-04T13:39:26;30.40;45.20
51815;DHT22;37874;53.158;6.766;2022-08-04T13:41:57;30.40;45.00
51815;DHT22;37874;53.158;6.766;2022-08-04T13:44:31;30.50;44.70
51815;DHT22;37874;53.158;6.766;2022-08-04T13:47:02;30.50;44.70
51815;DHT22;37874;53.158;6.766;2022-08-04T13:49:29;30.50;44.90
51815;DHT22;37874;53.158;6.766;2022-08-04T13:51:59;30.60;44.80
51815;DHT22;37874;53.158;6.766;2022-08-04T13:54:34;30.50;44.40
51815;DHT22;37874;53.158;6.766;2022-08-04T13:57:01;30.60;44.70
51815;DHT22;37874;53.158;6.766;2022-08-04T13:59:34;30.80;44.60
51815;DHT22;37874;53.158;6.766;2022-08-04T14:02:07;30.80;44.00
51815;DHT22;37874;53.158;6.766;2022-08-04T14:04:40;30.80;44.00
51815;DHT22;37874;53.158;6.766;2022-08-04T14:07:15;30.90;43.60
51815;DHT22;37874;53.158;6.766;2022-08-04T14:09:42;30.90;44.20
51815;DHT22;37874;53.158;6.766;2022-08-04T14:12:13;31.00;43.80
51815;DHT22;37874;53.158;6.766;2022-08-04T14:14:51;31.10;43.50
51815;DHT22;37874;53.158;6.766;2022-08-04T14:17:22;31.10;43.50
51815;DHT22;37874;53.158;6.766;2022-08-04T14:19:51;31.10;42.90
51815;DHT22;37874;53.158;6.766;2022-08-04T14:22:28;31.20;42.80
51815;DHT22;37874;53.158;6.766;2022-08-04T14:27:30;31.20;43.20
51815;DHT22;37874;53.158;6.766;2022-08-04T14:30:06;31.20;43.10
51815;DHT22;37874;53.158;6.766;2022-08-04T14:32:32;31.40;42.80
51815;DHT22;37874;53.158;6.766;2022-08-04T14:35:09;31.40;43.00
51815;DHT22;37874;53.158;6.766;2022-08-04T14:37:35;31.60;42.40
51815;DHT22;37874;53.158;6.766;2022-08-04T14:40:02;31.60;42.30
51815;DHT22;37874;53.158;6.766;2022-08-04T14:42:47;31.50;42.00
51815;DHT22;37874;53.158;6.766;2022-08-04T14:45:13;31.50;42.20
51815;DHT22;37874;53.158;6.766;2022-08-04T14:47:45;31.40;42.60
51815;DHT22;37874;53.158;6.766;2022-08-04T14:50:12;31.40;42.50
51815;DHT22;37874;53.158;6.766;2022-08-04T14:52:38;31.40;42.50
51815;DHT22;37874;53.158;6.766;2022-08-04T14:55:21;31.40;44.40
51815;DHT22;37874;53.158;6.766;2022-08-04T14:57:51;31.40;45.10
51815;DHT22;37874;53.158;6.766;2022-08-04T15:00:30;31.30;45.20
51815;DHT22;37874;53.158;6.766;2022-08-04T15:03:05;31.20;45.50
51815;DHT22;37874;53.158;6.766;2022-08-04T15:05:34;31.10;45.40
51815;DHT22;37874;53.158;6.766;2022-08-04T15:08:00;31.00;46.40
51815;DHT22;37874;53.158;6.766;2022-08-04T15:10:27;31.20;45.90
51815;DHT22;37874;53.158;6.766;2022-08-04T15:12:56;30.90;44.90
51815;DHT22;37874;53.158;6.766;2022-08-04T15:15:23;30.80;44.90
51815;DHT22;37874;53.158;6.766;2022-08-04T15:17:51;30.70;44.80
51815;DHT22;37874;53.158;6.766;2022-08-04T15:20:18;30.70;45.00
51815;DHT22;37874;53.158;6.766;2022-08-04T15:22:44;30.60;44.10
51815;DHT22;37874;53.158;6.766;2022-08-04T15:25:10;30.60;44.00
51815;DHT22;37874;53.158;6.766;2022-08-04T15:27:38;30.50;43.90
51815;DHT22;37874;53.158;6.766;2022-08-04T15:30:10;30.60;44.00
51815;DHT22;37874;53.158;6.766;2022-08-04T15:32:50;30.50;44.20
51815;DHT22;37874;53.158;6.766;2022-08-04T15:35:26;30.50;45.00
51815;DHT22;37874;53.158;6.766;2022-08-04T15:40:46;30.40;45.20
51815;DHT22;37874;53.158;6.766;2022-08-04T15:46:06;30.20;45.40
51815;DHT22;37874;53.158;6.766;2022-08-04T15:48:32;30.20;45.70
51815;DHT22;37874;53.158;6.766;2022-08-04T15:50:59;30.10;45.70
51815;DHT22;37874;53.158;6.766;2022-08-04T15:53:31;30.10;45.60
51815;DHT22;37874;53.158;6.766;2022-08-04T15:56:01;30.10;45.40
51815;DHT22;37874;53.158;6.766;2022-08-04T15:58:48;30.00;45.50
51815;DHT22;37874;53.158;6.766;2022-08-04T16:01:15;30.00;46.10
51815;DHT22;37874;53.158;6.766;2022-08-04T16:03:51;30.00;46.20
51815;DHT22;37874;53.158;6.766;2022-08-04T16:19:51;29.80;47.50
51815;DHT22;37874;53.158;6.766;2022-08-04T16:22:38;29.70;48.00
51815;DHT22;37874;53.158;6.766;2022-08-04T16:25:05;29.60;48.30
51815;DHT22;37874;53.158;6.766;2022-08-04T16:27:40;29.50;48.60
51815;DHT22;37874;53.158;6.766;2022-08-04T16:30:13;29.50;48.40
51815;DHT22;37874;53.158;6.766;2022-08-04T16:32:42;29.40;48.10
51815;DHT22;37874;53.158;6.766;2022-08-04T16:35:25;29.40;48.10
51815;DHT22;37874;53.158;6.766;2022-08-04T16:38:12;29.50;47.40
51815;DHT22;37874;53.158;6.766;2022-08-04T16:40:40;29.50;47.40
51815;DHT22;37874;53.158;6.766;2022-08-04T16:43:11;29.50;46.80
51815;DHT22;37874;53.158;6.766;2022-08-04T16:48:22;29.50;46.50
51815;DHT22;37874;53.158;6.766;2022-08-04T16:50:54;29.40;46.60
51815;DHT22;37874;53.158;6.766;2022-08-04T16:53:22;29.40;46.60
51815;DHT22;37874;53.158;6.766;2022-08-04T16:55:50;29.30;47.20
51815;DHT22;37874;53.158;6.766;2022-08-04T16:58:27;29.30;46.70
51815;DHT22;37874;53.158;6.766;2022-08-04T17:00:54;29.20;46.90
51815;DHT22;37874;53.158;6.766;2022-08-04T17:03:20;29.10;47.00
51815;DHT22;37874;53.158;6.766;2022-08-04T17:05:47;29.10;47.00
51815;DHT22;37874;53.158;6.766;2022-08-04T17:08:13;29.00;47.20
51815;DHT22;37874;53.158;6.766;2022-08-04T17:10:46;28.90;47.20
51815;DHT22;37874;53.158;6.766;2022-08-04T17:13:34;28.70;47.20
51815;DHT22;37874;53.158;6.766;2022-08-04T17:16:04;29.00;47.00
51815;DHT22;37874;53.158;6.766;2022-08-04T17:18:35;28.90;46.90
51815;DHT22;37874;53.158;6.766;2022-08-04T17:21:09;28.90;46.70
51815;DHT22;37874;53.158;6.766;2022-08-04T17:23:42;28.90;46.70
51815;DHT22;37874;53.158;6.766;2022-08-04T17:26:17;28.90;46.80
51815;DHT22;37874;53.158;6.766;2022-08-04T17:28:49;28.90;46.80
51815;DHT22;37874;53.158;6.766;2022-08-04T17:31:16;28.80;46.30
51815;DHT22;37874;53.158;6.766;2022-08-04T17:33:47;28.90;46.70
51815;DHT22;37874;53.158;6.766;2022-08-04T17:36:15;28.80;46.40
51815;DHT22;37874;53.158;6.766;2022-08-04T17:38:48;28.80;46.40
51815;DHT22;37874;53.158;6.766;2022-08-04T17:41:20;28.80;46.10
51815;DHT22;37874;53.158;6.766;2022-08-04T17:43:48;28.70;46.10
51815;DHT22;37874;53.158;6.766;2022-08-04T17:52:32;28.70;45.50
51815;DHT22;37874;53.158;6.766;2022-08-04T17:55:39;28.70;45.40
51815;DHT22;37874;53.158;6.766;2022-08-04T18:13:42;28.60;46.10
51815;DHT22;37874;53.158;6.766;2022-08-04T18:22:57;28.50;45.90
51815;DHT22;37874;53.158;6.766;2022-08-04T18:35:29;28.20;46.60
51815;DHT22;37874;53.158;6.766;2022-08-04T18:38:35;28.20;46.70
51815;DHT22;37874;53.158;6.766;2022-08-04T19:34:52;27.50;47.50
51815;DHT22;37874;53.158;6.766;2022-08-04T19:37:18;27.40;47.60
51815;DHT22;37874;53.158;6.766;2022-08-04T19:39:44;27.40;47.70
51815;DHT22;37874;53.158;6.766;2022-08-04T19:42:10;27.30;47.50
51815;DHT22;37874;53.158;6.766;2022-08-04T19:44:35;27.30;47.60
51815;DHT22;37874;53.158;6.766;2022-08-04T19:47:01;27.30;47.70
51815;DHT22;37874;53.158;6.766;2022-08-04T19:49:26;27.30;47.80
51815;DHT22;37874;53.158;6.766;2022-08-04T19:51:52;27.20;47.70
51815;DHT22;37874;53.158;6.766;2022-08-04T19:54:18;27.20;47.90
51815;DHT22;37874;53.158;6.766;2022-08-04T19:56:43;27.20;47.90
51815;DHT22;37874;53.158;6.766;2022-08-04T19:59:12;27.20;47.90
51815;DHT22;37874;53.158;6.766;2022-08-04T20:01:38;27.20;48.50
51815;DHT22;37874;53.158;6.766;2022-08-04T20:04:04;27.20;48.00
51815;DHT22;37874;53.158;6.766;2022-08-04T20:06:29;27.20;47.90
51815;DHT22;37874;53.158;6.766;2022-08-04T20:08:55;27.20;47.90
51815;DHT22;37874;53.158;6.766;2022-08-04T20:11:21;27.20;48.10
51815;DHT22;37874;53.158;6.766;2022-08-04T20:13:46;27.10;48.00
51815;DHT22;37874;53.158;6.766;2022-08-04T20:16:12;27.10;47.90
51815;DHT22;37874;53.158;6.766;2022-08-04T20:18:39;27.00;47.90
51815;DHT22;37874;53.158;6.766;2022-08-04T20:21:05;27.10;48.10
51815;DHT22;37874;53.158;6.766;2022-08-04T20:23:30;27.00;47.80
51815;DHT22;37874;53.158;6.766;2022-08-04T20:25:56;27.00;47.90
51815;DHT22;37874;53.158;6.766;2022-08-04T20:28:22;27.00;47.70
51815;DHT22;37874;53.158;6.766;2022-08-04T20:30:48;27.00;47.80
51815;DHT22;37874;53.158;6.766;2022-08-04T20:33:13;27.00;47.70
51815;DHT22;37874;53.158;6.766;2022-08-04T20:35:39;27.00;47.70
51815;DHT22;37874;53.158;6.766;2022-08-04T20:38:05;27.00;47.60
51815;DHT22;37874;53.158;6.766;2022-08-04T20:40:30;26.90;47.50
51815;DHT22;37874;53.158;6.766;2022-08-04T20:42:59;26.90;47.70
51815;DHT22;37874;53.158;6.766;2022-08-04T20:45:25;27.00;47.70
51815;DHT22;37874;53.158;6.766;2022-08-04T20:47:50;26.90;47.50
51815;DHT22;37874;53.158;6.766;2022-08-04T20:50:16;26.90;47.50
51815;DHT22;37874;53.158;6.766;2022-08-04T20:52:41;26.80;47.50
51815;DHT22;37874;53.158;6.766;2022-08-04T20:55:09;26.80;47.80
51815;DHT22;37874;53.158;6.766;2022-08-04T20:57:35;26.80;47.80
51815;DHT22;37874;53.158;6.766;2022-08-04T21:00:01;26.80;47.80
51815;DHT22;37874;53.158;6.766;2022-08-04T21:02:28;26.70;48.00
51815;DHT22;37874;53.158;6.766;2022-08-04T21:04:53;26.70;47.90
51815;DHT22;37874;53.158;6.766;2022-08-04T21:07:19;26.70;48.00
51815;DHT22;37874;53.158;6.766;2022-08-04T21:09:45;26.70;47.90
51815;DHT22;37874;53.158;6.766;2022-08-04T21:12:13;26.70;48.00
51815;DHT22;37874;53.158;6.766;2022-08-04T21:14:41;26.70;48.10
51815;DHT22;37874;53.158;6.766;2022-08-04T21:17:06;26.70;48.10
51815;DHT22;37874;53.158;6.766;2022-08-04T21:19:32;26.60;48.20
51815;DHT22;37874;53.158;6.766;2022-08-04T21:21:58;26.60;48.90
51815;DHT22;37874;53.158;6.766;2022-08-04T21:24:24;26.50;48.50
51815;DHT22;37874;53.158;6.766;2022-08-04T21:26:50;26.50;48.60
51815;DHT22;37874;53.158;6.766;2022-08-04T21:29:17;26.40;48.70
51815;DHT22;37874;53.158;6.766;2022-08-04T21:31:43;26.40;48.80
51815;DHT22;37874;53.158;6.766;2022-08-04T21:34:10;26.40;48.90
51815;DHT22;37874;53.158;6.766;2022-08-04T21:36:36;26.30;49.10
51815;DHT22;37874;53.158;6.766;2022-08-04T21:39:03;26.30;49.20
51815;DHT22;37874;53.158;6.766;2022-08-04T21:41:33;26.20;49.70
51815;DHT22;37874;53.158;6.766;2022-08-04T21:43:59;26.20;49.20
51815;DHT22;37874;53.158;6.766;2022-08-04T21:46:25;26.20;49.20
51815;DHT22;37874;53.158;6.766;2022-08-04T21:48:51;26.20;49.40
51815;DHT22;37874;53.158;6.766;2022-08-04T21:51:24;26.20;49.30
51815;DHT22;37874;53.158;6.766;2022-08-04T21:53:51;26.20;49.20
51815;DHT22;37874;53.158;6.766;2022-08-04T21:56:17;26.20;49.10
51815;DHT22;37874;53.158;6.766;2022-08-04T21:58:42;26.20;49.40
51815;DHT22;37874;53.158;6.766;2022-08-04T22:01:09;26.20;49.50
51815;DHT22;37874;53.158;6.766;2022-08-04T22:03:43;26.20;49.50
51815;DHT22;37874;53.158;6.766;2022-08-04T22:06:09;26.20;49.50
51815;DHT22;37874;53.158;6.766;2022-08-04T22:08:36;26.10;49.50
51815;DHT22;37874;53.158;6.766;2022-08-04T22:11:03;26.20;49.50
51815;DHT22;37874;53.158;6.766;2022-08-04T22:13:29;26.10;49.50
51815;DHT22;37874;53.158;6.766;2022-08-04T22:15:55;26.10;49.60
51815;DHT22;37874;53.158;6.766;2022-08-04T22:18:22;26.10;49.60
51815;DHT22;37874;53.158;6.766;2022-08-04T22:20:48;26.20;49.60
51815;DHT22;37874;53.158;6.766;2022-08-04T22:23:14;26.20;49.60
51815;DHT22;37874;53.158;6.766;2022-08-04T22:25:39;26.10;49.60
51815;DHT22;37874;53.158;6.766;2022-08-04T22:28:05;26.20;49.70
51815;DHT22;37874;53.158;6.766;2022-08-04T22:30:34;26.20;49.70
51815;DHT22;37874;53.158;6.766;2022-08-04T22:33:00;26.10;49.80
51815;DHT22;37874;53.158;6.766;2022-08-04T22:35:25;26.10;49.90
51815;DHT22;37874;53.158;6.766;2022-08-04T22:37:51;26.20;50.00
51815;DHT22;37874;53.158;6.766;2022-08-04T22:40:19;26.10;49.90
51815;DHT22;37874;53.158;6.766;2022-08-04T22:42:44;26.10;49.90
51815;DHT22;37874;53.158;6.766;2022-08-04T22:45:10;26.10;50.00
51815;DHT22;37874;53.158;6.766;2022-08-04T22:47:36;26.10;50.20
51815;DHT22;37874;53.158;6.766;2022-08-04T22:50:03;26.10;50.40